Milford, Utah Weather observations

Data are for observation ending at time listed.
 Day   Time    Ave.   Ave.  Ave.  Vector   Max.   Stn.    Total    Solar   Ave.  
  of    of     Air    Rel.  Wind   Wind    Wind   Baro.  Precip.   Rad.    Soil  
Year   Day     Temp.  Hum.  Speed  Dir.    Gust   Pres.                    Temp. 
2015   (MST)    F      %     mph   deg.    mph     mb.     in.     W/m2     F   
------------------------------------------------------------------------------
 115   18:20   43.2    85    6.8   183     12.3   835.4    0.00      23    54.9
 115   18:30   42.9    86    8.2   182     15.0   835.3    0.01      21    54.9
 115   18:40   42.6    86    9.1   180     17.0   835.3    0.00      21    54.9
 115   18:50   42.3    86    9.2   177     15.3   835.2    0.00      16    54.9
 115   19:00   42.3    86    8.6   172     14.2   835.2    0.00      11    54.9
 115   19:10   41.8    85    8.0   170     15.4   835.2    0.00       5    54.9
 115   19:20   41.6    85    7.7   175     12.8   835.2    0.00       3    55.0
 115   19:30   41.7    85    6.7   182     12.4   835.3    0.00       1    54.9
 115   19:40   41.7    85    5.8   185     11.8   835.5    0.00       0    54.9
 115   19:50   41.3    86    5.2   188     10.3   835.5    0.00       0    54.9
 115   20:00   40.9    86    4.8   186     11.6   835.7    0.00       0    54.9
 115   20:10   40.8    86    4.5   186      9.6   835.8    0.00       0    54.9
 115   20:20   40.7    86    3.4   192      7.7   835.8    0.00       0    54.9
 115   20:30   40.5    86    3.0   200      8.3   835.9    0.00       0    54.9
 115   20:40   40.5    87    3.2   200      7.6   836.0    0.00       0    54.9
 115   20:50   40.5    86    3.7   196     11.3   836.1    0.00       0    54.9
 115   21:00   40.4    87    3.6   190      9.2   836.1    0.00       0    54.8
 115   21:10   40.3    88    3.7   190      7.8   836.1    0.00       0    54.8
 115   21:20   40.3    88    3.4   198      9.5   836.2    0.00       0    54.8
 115   21:30   40.4    89    1.7   218      5.7   836.3    0.00       0    54.8
 115   21:40   40.6    88    1.5   352      6.6   836.4    0.01       0    54.8
 115   21:50   41.0    88    1.0     7      2.7   836.4    0.00       0    54.7
 115   22:00   41.1    88    1.1    10      2.9   836.6    0.00       0    54.7
 115   22:10   41.0    88    0.9     9      3.6   836.7    0.01       0    54.7
 115   22:20   41.0    88    2.2    12      5.3   836.8    0.00       0    54.7
 115   22:30   41.0    88    1.8     4      3.8   836.9    0.00       0    54.7
 115   22:40   41.0    88    2.2     2      6.6   837.0    0.01       0    54.6
 115   22:50   40.9    89    2.8    10      5.6   837.0    0.01       0    54.6
 115   23:00   40.8    89    3.8    13      6.5   837.0    0.00       0    54.6
 115   23:10   40.9    90    3.0    16      5.4   837.1    0.00       0    54.5
 115   23:20   40.8    90    4.0    14      6.4   837.1    0.01       0    54.5
 115   23:30   40.5    90    3.2     9      6.0   837.2    0.00       0    54.5
 115   23:40   40.4    91    4.1    18      6.2   837.2    0.00       0    54.4
 115   23:50   40.4    91    3.6    15      6.1   837.2    0.01       0    54.4
 116    0:00   40.2    91    3.9    29      7.4   837.2    0.00       0    54.4
 116    0:10   39.5    91    4.4    24      6.6   837.2    0.00       0    54.4
 116    0:20   39.4    90    3.9    22      7.8   837.2    0.00       0    54.3
 116    0:30   39.7    90    2.9    18      4.4   837.2    0.00       0    54.3
 116    0:40   39.6    90    1.7    10      4.2   837.2    0.00       0    54.3
 116    0:50   39.6    90    0.2   318      1.5   837.1    0.00       0    54.2
 116    1:00   39.6    90    0.3    16      1.7   837.1    0.00       0    54.2
 116    1:10   39.8    89    0.6    17      2.1   837.1    0.00       0    54.2
 116    1:20   39.7    89    1.8    27      2.9   837.0    0.00       0    54.1
 116    1:30   39.5    89    0.2   312      1.5   837.0    0.00       0    54.1
 116    1:40   39.4    90    0.0   303      1.3   837.1    0.00       0    54.1
 116    1:50   39.5    90    0.4   308      1.5   837.0    0.00       0    54.0
 116    2:00   39.6    90    0.1   314      1.0   837.1    0.00       0    54.0
 116    2:10   39.7    90    0.0   344      0.7   837.1    0.00       0    54.0
 116    2:20   39.6    90    0.1   310      1.1   837.2    0.00       0    54.0
 116    2:30   40.2    90    0.6    16      2.0   837.2    0.00       0    54.0
 116    2:40   40.3    90    0.4     4      1.6   837.2    0.00       0    53.9
 116    2:50   40.3    90    0.5     3      2.1   837.4    0.00       0    53.9
 116    3:00   40.1    90    0.3   313      1.5   837.5    0.00       0    53.9
 116    3:10   39.8    90    1.1   337      2.6   837.6    0.00       0    53.9
 116    3:20   39.9    90    0.4    20      2.3   837.7    0.01       0    53.8
 116    3:30   39.9    90    2.7    17      7.2   837.9    0.00       0    53.8
 116    3:40   38.8    90    6.1    19     10.4   838.1    0.01       0    53.8
 116    3:50   38.5    90    4.2    13      8.6   838.1    0.02       0    53.8
 116    4:00   38.2    90    2.4     8      7.8   838.1    0.01       0    53.7
 116    4:10   38.4    91    1.4     4      3.9   838.2    0.02       0    53.6
 116    4:20   38.4    91    2.3   356      6.3   838.3    0.05       0    53.4
 116    4:30   38.1    91    1.9   358      4.5   838.4    0.03       0    53.2
 116    4:40   38.1    91    1.9   357      6.0   838.4    0.04       1    52.9
 116    4:50   38.2    91    1.6     2      5.2   838.4    0.03       1    52.7
 116    5:00   38.1    92    1.2   346      4.0   838.4    0.04       0    52.4
 116    5:10   38.0    93    1.5   358      4.7   838.6    0.02       0    52.1
 116    5:20   38.0    93    1.4   352      4.7   838.8    0.00       0    51.9
 116    5:30   38.1    93    2.8     5      6.3   838.8    0.00       0    51.8
 116    5:40   38.0    92    2.9     5      6.0   839.0    0.00       2    51.7
 116    5:50   38.0    92    2.5   353      5.0   839.2    0.00       3    51.7
 116    6:00   38.1    92    2.5     6      6.4   839.3    0.00       4    51.7
 116    6:10   38.3    91    1.9   356      4.9   839.5    0.00       9    51.6
 116    6:20   38.2    91    2.9     5      6.4   839.7    0.00      15    51.6
 116    6:30   38.2    90    4.1     8      8.3   839.8    0.00      26    51.6
 116    6:40   38.5    89    2.4     4      5.7   839.9    0.00      36    51.6
 116    6:50   38.6    88    2.7    10      6.2   840.2    0.00      43    51.6
 116    7:00   38.5    88    3.2     6     10.1   840.4    0.00      57    51.6
 116    7:10   38.8    86    2.6     6      7.2   840.6    0.00      70    51.6
 116    7:20   39.2    85    1.6   356      4.9   840.7    0.00      90    51.5
 116    7:30   39.6    85    2.1   350      8.7   841.0    0.00     118    51.5
 116    7:40   40.2    83    2.5   357      8.6   841.1    0.00     144    51.5
 116    7:50   40.9    82    2.9     6      7.2   841.3    0.00     199    51.5
 116    8:00   41.8    81    2.9     9      7.0   841.4    0.00     222    51.5
 116    8:10   42.4    78    4.3    12     12.1   841.6    0.00     312    51.5
 116    8:20   43.3    72    5.3     7     10.0   841.7    0.00     403    51.5
 116    8:30   44.0    67    6.5    13     14.7   841.9    0.00     442    51.5
 116    8:40   44.3    64    8.8    14     14.8   842.1    0.00     474    51.5
 116    8:50   44.8    61    9.4    18     17.6   842.2    0.00     513    51.6
 116    9:00   45.3    59    8.9    12     16.4   842.2    0.00     533    51.6
 116    9:10   45.2    57   11.7    15     19.1   842.4    0.00     513    51.6
 116    9:20   45.0    56   12.3    15     22.2   842.4    0.00     598    51.6
 116    9:30   46.0    56    9.0    16     17.4   842.5    0.00     525    51.6
 116    9:40   46.3    54   12.1    18     23.5   842.6    0.00     638    51.7
 116    9:50   45.9    52   12.6    21     21.3   842.7    0.00     601    51.7
 116   10:00   46.6    51    9.9    14     16.2   842.9    0.00     689    51.7
 116   10:10   46.7    49   11.8    16     20.8   843.2    0.00     548    51.7
 116   10:20   46.5    49   10.7    20     20.0   843.2    0.00     460    51.7
 116   10:30   46.9    50   11.8    18     18.6   843.2    0.00     635    51.7
 116   10:40   47.4    50   12.9    21     22.8   843.2    0.00     706    51.7
 116   10:50   47.9    48    9.8    19     18.3   843.3    0.00     681    51.7
 116   11:00   47.7    47   10.4    18     21.5   843.3    0.00     385    51.7
 116   11:10   47.6    45   11.9    17     23.2   843.3    0.00     623    51.7
 116   11:20   48.7    42   11.7    20     19.4   843.2    0.00     833    51.7
 116   11:30   49.3    38   12.0    20     21.4   843.3    0.00     877    51.8
 116   11:40   50.2    35   12.0    16     23.6   843.4    0.00     887    51.8
 116   11:50   49.9    34   12.6    15     24.3   843.5    0.00     867    51.9
 116   12:00   50.6    35   10.8    14     21.5   843.5    0.00     897    51.9
 116   12:10   50.2    35   11.3    13     20.6   843.5    0.00     796    51.9
 116   12:20   50.7    33    8.9     8     21.7   843.5    0.00     933    51.9
 116   12:30   50.4    33   10.2    12     19.3   843.6    0.00     661    52.0
 116   12:40   50.2    34    8.1     7     16.1   843.7    0.00     409    52.0
 116   12:50   50.8    35   12.9    20     20.8   843.7    0.00     855    52.0
 116   13:00   50.6    36   13.2    15     24.3   843.9    0.00     580    52.0
 116   13:10   50.0    39   11.2    15     19.0   844.1    0.00     253    52.1
 116   13:20   49.7    38   12.9    19     18.8   844.2    0.00     486    52.1
 116   13:30   49.7    38   10.9    13     22.6   844.2    0.00     234    52.1
 116   13:40   50.1    37   14.3    19     22.2   844.2    0.00     680    52.1
 116   13:50   51.0    36   10.8    19     23.5   844.2    0.00     795    52.2
 116   14:00   50.8    35   12.2    20     20.8   844.3    0.00     328    52.2
 116   14:10   51.3    34   11.5    14     21.6   844.5    0.00     691    52.3
 116   14:20   51.2    36   13.2    18     20.9   844.6    0.00     372    52.3
 116   14:30   50.6    38   12.0    18     19.8   844.8    0.00     422    52.4
 116   14:40   50.6    37   11.7    22     21.3   844.7    0.00     431    52.4
 116   14:50   50.7    35   12.0    17     22.0   844.6    0.00     454    52.5
 116   15:00   50.9    36   12.0    18     20.1   844.6    0.00     282    52.5
 116   15:10   50.5    38   12.7    20     21.0   844.7    0.00     399    52.5
 116   15:20   50.8    35    9.6    11     19.2   844.6    0.00     475    52.6
 116   15:30   51.7    34   11.7    18     20.1   844.7    0.00     638    52.6
 116   15:40   52.2    33    9.4    19     19.1   844.7    0.00     471    52.7
 116   15:50   51.1    34   11.7    15     22.4   844.8    0.00     306    52.8
 116   16:00   51.7    33   10.5    12     19.5   844.8    0.00     501    52.8
 116   16:10   52.2    33   10.4    14     17.9   844.9    0.00     527    52.9
 116   16:20   52.1    32    9.6    12     19.3   844.8    0.00     491    52.9
 116   16:30   52.2    33   11.8    15     20.0   844.9    0.00     437    52.9
 116   16:40   51.3    36   10.6    15     18.6   844.9    0.00     305    53.0
 116   16:50   51.9    34   11.1    12     24.5   844.9    0.00     431    53.1
 116   17:00   51.6    35   10.5    16     17.2   844.9    0.00     400    53.1
 116   17:10   51.5    34   11.5    12     18.3   844.9    0.00     378    53.1
 116   17:20   51.5    34    9.6    15     17.0   844.8    0.00     320    53.2
 116   17:30   51.4    34   11.9    16     20.5   844.9    0.00     149    53.2
 116   17:40   50.8    35   14.0    17     21.3   844.9    0.00     113    53.2
 116   17:50   50.7    35   12.2    16     21.2   844.9    0.00     166    53.3
 116   18:00   50.5    36   12.7    16     22.3   845.0    0.00     130    53.3
 116   18:10   50.2    35   11.9    16     22.5   845.1    0.00      31    53.3

Return to Milford, Utah graphs page.


Western Regional Climate Center,wrcc@dri.edu